Time;durP1;ratioP1;P1;durP2;ratioP2;P2;SDS_P1;SDS_P2;PMS_P1;PMS_P2;Temp;Humidity;BMP_temperature;BMP_pressure;BME280_temperature;BME280_humidity;BME280_pressure;Samples;Min_cycle;Max_cycle;Signal;HPM_P1;HPM_P2
2022/04/02 00:00:18;;;;;;;;;;;;;;;21.61;27.05;96294.19;5016113;28;867;-76
2022/04/02 00:02:44;;;;;;;;;;;;;;;21.55;27.25;96276.31;5016195;28;999;-76
2022/04/02 00:05:10;;;;;;;;;;;;;;;21.49;27.46;96275.44;5015908;28;1124;-75
2022/04/02 00:07:36;;;;;;;;;;;;;;;21.55;27.24;96274.28;5016145;28;1736;-76
2022/04/02 00:10:02;;;;;;;;;;;;;;;21.54;27.34;96280.41;5016341;28;986;-76
2022/04/02 00:12:27;;;;;;;;;;;;;;;21.61;27.25;96288.53;5015774;28;839;-76
2022/04/02 00:14:53;;;;;;;;;;;;;;;21.53;27.19;96281.69;5016033;28;1977;-76
2022/04/02 00:17:18;;;;;;;;;;;;;;;22.10;26.47;96278.56;5016030;28;960;-76
2022/04/02 00:19:44;;;;;;;;;;;;;;;22.35;26.04;96265.88;5015844;28;974;-75
2022/04/02 00:22:10;;;;;;;;;;;;;;;21.89;26.54;96245.78;5016537;28;884;-75
2022/04/02 00:24:35;;;;;;;;;;;;;;;21.60;27.12;96247.31;5016133;28;888;-75
2022/04/02 00:27:00;;;;;;;;;;;;;;;21.53;27.25;96256.22;5016037;28;978;-76
2022/04/02 00:29:27;;;;;;;;;;;;;;;21.59;27.12;96252.22;5015870;28;921;-76
2022/04/02 00:31:53;;;;;;;;;;;;;;;21.49;27.02;96262.06;5015874;28;1040;-77
2022/04/02 00:34:18;;;;;;;;;;;;;;;21.51;27.05;96264.44;4964924;28;1249;-76
2022/04/02 00:36:45;;;;;;;;;;;;;;;21.48;27.04;96245.56;5015977;28;1978;-76
2022/04/02 00:39:10;;;;;;;;;;;;;;;21.90;26.62;96236.00;4954867;29;1303;-75
2022/04/02 00:41:35;;;;;;;;;;;;;;;22.27;25.89;96222.97;4955087;29;915;-76
2022/04/02 00:44:10;;;;;;;;;;;;;;;22.31;25.88;96226.38;4955039;29;992;-76
2022/04/02 00:46:36;;;;;;;;;;;;;;;21.76;26.64;96227.06;4938535;29;1025;-76
2022/04/02 00:49:04;;;;;;;;;;;;;;;21.62;26.82;96222.16;4954604;28;1108;-75
2022/04/02 00:51:31;;;;;;;;;;;;;;;21.43;27.16;96234.94;4973882;28;1200;-76
2022/04/02 00:53:56;;;;;;;;;;;;;;;21.53;26.90;96233.56;4974271;28;1144;-75
2022/04/02 00:56:22;;;;;;;;;;;;;;;21.56;27.23;96229.78;4955819;28;1919;-75
2022/04/02 00:58:47;;;;;;;;;;;;;;;21.57;27.27;96237.78;4958677;28;949;-76
2022/04/02 01:01:14;;;;;;;;;;;;;;;22.11;26.54;96240.50;4958321;28;1361;-76
2022/04/02 01:03:41;;;;;;;;;;;;;;;22.49;25.62;96247.28;4958616;29;1118;-77
2022/04/02 01:06:08;;;;;;;;;;;;;;;21.90;26.26;96241.66;4958457;28;1097;-77
2022/04/02 01:08:37;;;;;;;;;;;;;;;21.71;26.86;96253.22;4942706;29;1138;-77
2022/04/02 01:11:03;;;;;;;;;;;;;;;21.58;26.83;96238.56;4958206;28;1257;-74
2022/04/02 01:13:31;;;;;;;;;;;;;;;21.56;26.91;96241.09;4942115;29;947;-76
2022/04/02 01:15:58;;;;;;;;;;;;;;;21.63;26.96;96235.03;4967208;28;1911;-76
2022/04/02 01:18:24;;;;;;;;;;;;;;;21.59;27.16;96235.22;4964733;28;1278;-76
2022/04/02 01:20:53;;;;;;;;;;;;;;;21.43;27.21;96251.91;4958116;29;970;-76
2022/04/02 01:23:29;;;;;;;;;;;;;;;22.24;26.15;96255.13;4991826;28;1437;-76
2022/04/02 01:25:58;;;;;;;;;;;;;;;22.28;25.71;96243.63;4980484;28;1579;-76
2022/04/02 01:28:40;;;;;;;;;;;;;;;21.75;26.63;96236.78;5000443;28;1592;-76
2022/04/02 01:31:12;;;;;;;;;;;;;;;21.61;26.95;96229.09;5001774;28;1379;-75
2022/04/02 01:33:40;;;;;;;;;;;;;;;21.42;27.18;96230.56;4957837;29;1159;-76
2022/04/02 01:36:07;;;;;;;;;;;;;;;22.14;26.06;96239.53;4957966;29;1907;-76
2022/04/02 01:38:46;;;;;;;;;;;;;;;22.47;25.71;96239.25;4958003;29;1159;-77
2022/04/02 01:41:12;;;;;;;;;;;;;;;22.16;26.04;96248.31;4957745;29;1075;-76
2022/04/02 01:43:38;;;;;;;;;;;;;;;21.72;26.73;96246.28;4958121;29;1324;-76
2022/04/02 01:46:03;;;;;;;;;;;;;;;21.73;26.78;96239.34;4957908;29;1015;-76
2022/04/02 01:48:30;;;;;;;;;;;;;;;21.66;26.75;96239.75;4957825;29;1357;-76
2022/04/02 01:51:02;;;;;;;;;;;;;;;21.53;27.07;96237.19;4957468;29;1069;-76
2022/04/02 01:53:28;;;;;;;;;;;;;;;21.41;27.06;96240.31;4957214;28;1650;-76
2022/04/02 01:55:54;;;;;;;;;;;;;;;21.47;27.12;96229.88;4957661;28;1907;-76
2022/04/02 01:58:34;;;;;;;;;;;;;;;21.45;27.31;96235.22;4957406;28;1140;-75
2022/04/02 02:01:02;;;;;;;;;;;;;;;22.03;26.49;96230.81;4957547;29;1034;-75
2022/04/02 02:03:28;;;;;;;;;;;;;;;22.28;25.96;96233.06;4957729;28;1179;-76
2022/04/02 02:05:54;;;;;;;;;;;;;;;21.94;26.49;96230.94;4944301;28;1471;-75
2022/04/02 02:08:20;;;;;;;;;;;;;;;21.73;26.70;96230.84;4960187;28;1187;-74
2022/04/02 02:10:56;;;;;;;;;;;;;;;21.56;27.16;96235.44;4960673;28;1057;-76
2022/04/02 02:14:00;;;;;;;;;;;;;;;21.44;27.07;96223.13;4919658;29;1012;-76
2022/04/02 02:16:27;;;;;;;;;;;;;;;21.60;26.89;96230.34;4918943;29;1911;-75
2022/04/02 02:18:55;;;;;;;;;;;;;;;21.46;26.96;96248.13;4919072;29;1668;-75
2022/04/02 02:21:21;;;;;;;;;;;;;;;21.47;27.14;96246.84;4942155;29;1152;-75
2022/04/02 02:23:47;;;;;;;;;;;;;;;21.76;26.78;96249.69;4956834;29;1088;-74
2022/04/02 02:26:13;;;;;;;;;;;;;;;22.21;26.28;96244.78;4957139;29;1197;-75
2022/04/02 02:28:39;;;;;;;;;;;;;;;22.38;25.81;96249.91;4937461;29;1543;-75
2022/04/02 02:31:07;;;;;;;;;;;;;;;21.88;26.29;96256.31;4907419;29;1377;-76
2022/04/02 02:36:19;;;;;;;;;;;;;;;21.44;27.28;96256.28;4899484;29;1907;-75
2022/04/02 02:38:56;;;;;;;;;;;;;;;21.44;27.24;96251.41;4846461;29;1341;-76
2022/04/02 02:41:43;;;;;;;;;;;;;;;21.45;27.22;96238.84;4846723;29;1307;-75
2022/04/02 02:44:20;;;;;;;;;;;;;;;21.40;27.33;96244.38;4864577;29;1136;-75
2022/04/02 02:46:50;;;;;;;;;;;;;;;21.57;26.78;96237.00;4918194;29;1054;-76
2022/04/02 02:49:22;;;;;;;;;;;;;;;21.44;27.00;96251.41;4912930;29;1239;-75
2022/04/02 02:51:49;;;;;;;;;;;;;;;22.12;25.92;96259.06;4899320;29;1573;-76
2022/04/02 02:54:20;;;;;;;;;;;;;;;22.35;25.70;96260.19;4914999;29;1172;-75
2022/04/02 02:56:46;;;;;;;;;;;;;;;21.97;26.08;96252.63;4861974;29;1992;-75
2022/04/02 02:59:12;;;;;;;;;;;;;;;21.70;26.48;96245.19;4879720;29;1107;-75
2022/04/02 03:01:38;;;;;;;;;;;;;;;21.56;26.72;96253.19;4899275;29;1194;-75
2022/04/02 03:04:05;;;;;;;;;;;;;;;21.52;27.05;96257.50;4868884;29;1158;-77
2022/04/02 03:06:33;;;;;;;;;;;;;;;21.50;26.99;96243.03;4843288;29;1101;-77
2022/04/02 03:08:59;;;;;;;;;;;;;;;21.61;27.01;96245.31;4862513;29;1734;-76
2022/04/02 03:11:24;;;;;;;;;;;;;;;22.04;26.29;96240.88;4898968;29;1197;-76
2022/04/02 03:13:52;;;;;;;;;;;;;;;22.33;25.65;96245.75;4880136;29;1262;-77
2022/04/02 03:16:18;;;;;;;;;;;;;;;21.85;26.60;96246.75;4880179;29;1907;-74
2022/04/02 03:18:51;;;;;;;;;;;;;;;21.53;26.80;96259.03;4845909;29;1102;-76
2022/04/02 03:21:19;;;;;;;;;;;;;;;21.26;27.16;96258.00;4858900;29;1231;-76
2022/04/02 03:23:45;;;;;;;;;;;;;;;21.42;27.22;96258.84;4843461;29;1107;-76
2022/04/02 03:26:14;;;;;;;;;;;;;;;21.44;27.30;96264.78;4880049;29;1067;-75
2022/04/02 03:28:40;;;;;;;;;;;;;;;21.51;27.11;96241.78;4864713;29;1106;-76
2022/04/02 03:31:06;;;;;;;;;;;;;;;21.77;26.69;96247.66;4848134;29;1055;-76
2022/04/02 03:33:34;;;;;;;;;;;;;;;22.17;25.92;96261.19;4883991;29;1352;-77
2022/04/02 03:36:02;;;;;;;;;;;;;;;22.08;26.12;96247.13;4879801;29;1907;-77
2022/04/02 03:38:28;;;;;;;;;;;;;;;21.52;27.05;96246.16;4880251;29;1067;-77
2022/04/02 03:40:57;;;;;;;;;;;;;;;21.60;26.70;96241.66;4859604;29;1100;-77
2022/04/02 03:43:23;;;;;;;;;;;;;;;21.55;27.10;96240.31;4900409;29;1350;-76
2022/04/02 03:45:48;;;;;;;;;;;;;;;21.48;27.00;96252.00;4898533;29;1073;-77
2022/04/02 03:48:14;;;;;;;;;;;;;;;21.50;27.12;96254.34;4898479;29;1068;-77
2022/04/02 03:50:42;;;;;;;;;;;;;;;21.46;27.20;96256.59;4936072;29;1381;-76
2022/04/02 03:53:14;;;;;;;;;;;;;;;21.74;27.13;96249.38;4936422;29;1381;-76
2022/04/02 03:55:52;;;;;;;;;;;;;;;22.22;26.37;96257.66;4936053;29;1903;-76
2022/04/02 03:58:27;;;;;;;;;;;;;;;22.14;26.22;96262.19;4917146;29;1198;-76
2022/04/02 04:00:53;;;;;;;;;;;;;;;21.71;26.81;96253.22;4935946;29;1166;-75
2022/04/02 04:03:19;;;;;;;;;;;;;;;21.45;27.33;96263.50;4936213;29;1156;-76
2022/04/02 04:05:48;;;;;;;;;;;;;;;21.56;26.91;96266.56;4936131;29;1148;-77
2022/04/02 04:08:15;;;;;;;;;;;;;;;21.47;27.30;96272.31;4954891;29;1546;-76
2022/04/02 04:10:43;;;;;;;;;;;;;;;21.52;27.06;96272.41;4939345;28;1179;-77
2022/04/02 04:13:09;;;;;;;;;;;;;;;21.68;27.20;96276.03;4955266;29;995;-75
2022/04/02 04:15:38;;;;;;;;;;;;;;;21.54;27.31;96280.41;4935813;29;1902;-77
2022/04/02 04:18:05;;;;;;;;;;;;;;;21.49;27.26;96278.25;4916650;29;1466;-76
2022/04/02 04:20:32;;;;;;;;;;;;;;;22.06;26.55;96267.44;4871822;29;1336;-75
2022/04/02 04:23:00;;;;;;;;;;;;;;;22.31;26.27;96271.72;4879406;29;1338;-76
2022/04/02 04:25:27;;;;;;;;;;;;;;;22.20;26.04;96271.56;4879339;29;982;-76
2022/04/02 04:27:54;;;;;;;;;;;;;;;21.83;26.70;96280.44;4879333;29;957;-77
2022/04/02 04:30:20;;;;;;;;;;;;;;;21.65;26.96;96294.75;4880343;29;1118;-76
2022/04/02 04:32:46;;;;;;;;;;;;;;;21.63;26.87;96288.81;4918444;29;1199;-77
2022/04/02 04:35:12;;;;;;;;;;;;;;;21.49;27.27;96292.41;4939463;29;1899;-76
2022/04/02 04:37:37;;;;;;;;;;;;;;;21.45;27.24;96291.81;4939522;29;1254;-77
2022/04/02 04:40:11;;;;;;;;;;;;;;;21.49;27.12;96289.56;4923346;29;1337;-77
2022/04/02 04:42:39;;;;;;;;;;;;;;;21.40;27.49;96289.66;4882593;29;1201;-77
2022/04/02 04:45:07;;;;;;;;;;;;;;;21.78;27.00;96295.28;4866771;29;1542;-76
2022/04/02 04:47:34;;;;;;;;;;;;;;;22.16;26.31;96292.84;4874671;29;1387;-76
2022/04/02 04:50:00;;;;;;;;;;;;;;;22.06;26.35;96297.81;4908264;29;1348;-75
2022/04/02 04:52:27;;;;;;;;;;;;;;;21.90;26.69;96309.63;4967496;28;1397;-76
2022/04/02 04:54:53;;;;;;;;;;;;;;;21.70;26.96;96313.91;4951975;28;1407;-75
2022/04/02 04:57:19;;;;;;;;;;;;;;;21.61;26.82;96311.19;4910891;29;1998;-76
2022/04/02 04:59:55;;;;;;;;;;;;;;;21.65;26.79;96325.91;4894455;29;1418;-76
2022/04/02 05:02:22;;;;;;;;;;;;;;;21.53;27.17;96338.28;4894239;29;1472;-75
2022/04/02 05:04:47;;;;;;;;;;;;;;;21.47;27.30;96328.91;4911479;29;1217;-74
2022/04/02 05:07:14;;;;;;;;;;;;;;;21.64;27.05;96341.31;4881980;29;1359;-76
2022/04/02 05:09:42;;;;;;;;;;;;;;;21.69;26.94;96339.88;4882093;29;1285;-75
2022/04/02 05:12:08;;;;;;;;;;;;;;;22.30;26.02;96338.16;4866880;29;1140;-75
2022/04/02 05:14:37;;;;;;;;;;;;;;;21.93;26.47;96343.44;4882640;29;1294;-75
2022/04/02 05:17:05;;;;;;;;;;;;;;;21.74;26.87;96339.19;4866701;29;1982;-77
2022/04/02 05:19:33;;;;;;;;;;;;;;;21.46;27.37;96339.44;4849737;29;1388;-76
2022/04/02 05:22:01;;;;;;;;;;;;;;;21.42;27.38;96352.22;4831073;29;1371;-75
2022/04/02 05:24:30;;;;;;;;;;;;;;;21.50;27.43;96344.91;4845282;29;1715;-75
2022/04/02 05:26:56;;;;;;;;;;;;;;;21.98;26.66;96344.78;4845182;29;1210;-75
2022/04/02 05:29:22;;;;;;;;;;;;;;;22.36;25.97;96341.88;4826708;29;1099;-76
2022/04/02 05:31:48;;;;;;;;;;;;;;;22.16;26.43;96344.63;4811343;29;1062;-76
2022/04/02 05:34:14;;;;;;;;;;;;;;;21.74;27.06;96354.13;4826727;29;948;-73
2022/04/02 05:36:41;;;;;;;;;;;;;;;21.61;27.39;96345.16;4826682;29;1907;-76
2022/04/02 05:39:07;;;;;;;;;;;;;;;21.63;27.15;96353.91;4841998;29;1135;-76
2022/04/02 05:41:32;;;;;;;;;;;;;;;21.55;27.51;96352.72;4844555;29;1051;-75
2022/04/02 05:43:58;;;;;;;;;;;;;;;21.56;27.45;96348.66;4844696;29;1308;-76
2022/04/02 05:46:24;;;;;;;;;;;;;;;21.89;27.32;96359.03;4864807;29;1091;-77
2022/04/02 05:48:49;;;;;;;;;;;;;;;22.19;26.67;96349.31;4854339;29;1309;-76
2022/04/02 05:51:15;;;;;;;;;;;;;;;22.14;26.36;96369.06;4873049;29;1513;-75
2022/04/02 05:53:41;;;;;;;;;;;;;;;21.78;27.08;96370.94;4889158;29;1257;-75
2022/04/02 05:56:09;;;;;;;;;;;;;;;21.63;27.42;96359.59;4884797;29;1911;-74
2022/04/02 05:58:36;;;;;;;;;;;;;;;21.62;27.61;96369.34;4900361;29;1071;-75
2022/04/02 06:01:01;;;;;;;;;;;;;;;21.56;27.53;96377.72;4895783;29;1023;-76
2022/04/02 06:03:27;;;;;;;;;;;;;;;21.62;27.66;96368.56;4900460;29;941;-75
2022/04/02 06:05:52;;;;;;;;;;;;;;;21.56;27.67;96371.28;4900299;29;1093;-76
2022/04/02 06:08:18;;;;;;;;;;;;;;;21.53;27.46;96373.03;4900408;29;1039;-75
2022/04/02 06:10:44;;;;;;;;;;;;;;;21.56;27.32;96379.78;4914720;29;1099;-75
2022/04/02 06:13:10;;;;;;;;;;;;;;;21.63;27.62;96382.22;4903382;29;996;-75
2022/04/02 06:15:36;;;;;;;;;;;;;;;22.05;26.94;96396.16;4904156;29;1988;-76
2022/04/02 06:18:01;;;;;;;;;;;;;;;22.33;26.54;96388.19;4937444;29;1341;-74
2022/04/02 06:20:26;;;;;;;;;;;;;;;21.74;27.20;96393.75;4937995;29;985;-75
2022/04/02 06:22:53;;;;;;;;;;;;;;;21.64;27.49;96392.28;4937856;29;1018;-75
2022/04/02 06:25:18;;;;;;;;;;;;;;;21.63;27.55;96392.78;4938097;29;961;-75
2022/04/02 06:27:44;;;;;;;;;;;;;;;21.58;27.60;96389.34;4937882;29;949;-74
2022/04/02 06:30:14;;;;;;;;;;;;;;;21.44;27.88;96398.56;4937959;29;973;-75
2022/04/02 06:32:39;;;;;;;;;;;;;;;21.46;27.78;96400.91;4952328;29;1122;-75
2022/04/02 06:35:09;;;;;;;;;;;;;;;21.57;27.67;96395.50;4940367;29;1972;-75
2022/04/02 06:37:35;;;;;;;;;;;;;;;21.21;27.78;96369.00;4925046;29;1122;-75
2022/04/02 06:40:01;;;;;;;;;;;;;;;21.97;26.85;96397.03;4956892;29;1028;-74
2022/04/02 06:42:26;;;;;;;;;;;;;;;22.32;26.41;96402.84;4956522;29;948;-76
2022/04/02 06:44:52;;;;;;;;;;;;;;;22.43;26.28;96402.25;4956653;29;1144;-75
2022/04/02 06:47:18;;;;;;;;;;;;;;;21.89;27.04;96388.13;4989228;28;1049;-74
2022/04/02 06:49:43;;;;;;;;;;;;;;;21.73;27.46;96397.88;4997546;28;1259;-75
2022/04/02 06:52:09;;;;;;;;;;;;;;;21.63;27.58;96410.53;4997560;28;986;-75
2022/04/02 06:54:34;;;;;;;;;;;;;;;21.58;27.53;96408.38;4997556;28;1023;-75
2022/04/02 06:57:00;;;;;;;;;;;;;;;21.63;27.64;96399.22;4997340;28;1979;-75
2022/04/02 06:59:25;;;;;;;;;;;;;;;21.50;27.82;96401.50;4997689;28;1003;-76
2022/04/02 07:01:51;;;;;;;;;;;;;;;21.44;27.77;96403.44;4978895;28;1071;-75
2022/04/02 07:04:16;;;;;;;;;;;;;;;21.54;27.55;96397.22;5027980;28;1087;-75
2022/04/02 07:06:45;;;;;;;;;;;;;;;21.42;27.86;96400.31;5036619;28;958;-74
2022/04/02 07:09:11;;;;;;;;;;;;;;;21.54;27.83;96404.94;5034760;28;1235;-75
2022/04/02 07:11:37;;;;;;;;;;;;;;;21.79;27.33;96410.09;5026106;28;1249;-75
2022/04/02 07:14:02;;;;;;;;;;;;;;;22.24;26.95;96413.78;5027236;28;1199;-75
2022/04/02 07:16:28;;;;;;;;;;;;;;;22.14;26.87;96414.38;5023175;28;1959;-77
2022/04/02 07:18:54;;;;;;;;;;;;;;;21.81;27.23;96410.41;5026203;28;1308;-75
2022/04/02 07:21:20;;;;;;;;;;;;;;;21.65;27.70;96418.53;4965521;28;1252;-75
2022/04/02 07:23:46;;;;;;;;;;;;;;;21.68;27.52;96407.03;4925677;29;1295;-75
2022/04/02 07:26:11;;;;;;;;;;;;;;;21.46;28.10;96423.56;4927400;29;1239;-76
2022/04/02 07:28:37;;;;;;;;;;;;;;;21.61;27.85;96427.22;4887582;29;1299;-76
2022/04/02 07:31:02;;;;;;;;;;;;;;;21.62;27.85;96436.50;4925631;29;1351;-76
2022/04/02 07:33:28;;;;;;;;;;;;;;;21.65;27.63;96424.97;4925317;29;1306;-75
2022/04/02 07:35:54;;;;;;;;;;;;;;;21.73;27.52;96423.34;4926861;29;1899;-76
2022/04/02 07:38:20;;;;;;;;;;;;;;;22.34;26.63;96423.78;4925789;29;1148;-76
2022/04/02 07:40:51;;;;;;;;;;;;;;;22.36;26.42;96412.72;4911453;29;1149;-76
2022/04/02 07:43:20;;;;;;;;;;;;;;;22.35;26.62;96418.88;4879165;29;1303;-76
2022/04/02 07:45:47;;;;;;;;;;;;;;;21.93;27.08;96434.03;4879836;29;1301;-76
2022/04/02 07:48:13;;;;;;;;;;;;;;;21.72;27.58;96430.28;4879462;29;1249;-76
2022/04/02 07:50:42;;;;;;;;;;;;;;;21.49;27.74;96442.38;4878932;29;1252;-75
2022/04/02 07:53:11;;;;;;;;;;;;;;;21.31;28.07;96434.81;4925704;29;1335;-74
2022/04/02 07:55:37;;;;;;;;;;;;;;;21.56;27.79;96439.22;4968745;28;1915;-77
2022/04/02 07:58:02;;;;;;;;;;;;;;;21.65;27.71;96433.47;4974613;28;1298;-77
2022/04/02 08:00:28;;;;;;;;;;;;;;;21.55;27.92;96437.63;4969004;28;1146;-77
2022/04/02 08:02:53;;;;;;;;;;;;;;;21.46;28.01;96434.88;4974671;28;1274;-76
2022/04/02 08:05:21;;;;;;;;;;;;;;;21.58;27.50;96448.00;4974171;28;1057;-76
2022/04/02 08:07:57;;;;;;;;;;;;;;;21.61;27.79;96452.69;4990543;28;1174;-76
2022/04/02 08:10:30;;;;;;;;;;;;;;;21.47;27.83;96436.44;4990596;28;1278;-76
2022/04/02 08:12:57;;;;;;;;;;;;;;;21.50;28.11;96429.78;4974402;28;1254;-76
2022/04/02 08:15:23;;;;;;;;;;;;;;;21.66;27.69;96431.41;4974188;28;1968;-77
2022/04/02 08:17:54;;;;;;;;;;;;;;;22.34;26.76;96423.00;4990717;28;1235;-77
2022/04/02 08:20:19;;;;;;;;;;;;;;;22.30;26.84;96434.50;4968336;28;1122;-76
2022/04/02 08:22:45;;;;;;;;;;;;;;;21.89;27.49;96449.66;4993932;28;987;-75
2022/04/02 08:25:11;;;;;;;;;;;;;;;21.74;27.46;96441.88;5032634;28;1035;-77
2022/04/02 08:27:54;;;;;;;;;;;;;;;21.72;27.48;96446.47;5002995;28;1364;-76
2022/04/02 08:30:33;;;;;;;;;;;;;;;21.62;27.68;96448.59;5015655;28;1013;-76
2022/04/02 08:33:16;;;;;;;;;;;;;;;21.45;27.82;96438.94;4982063;28;1278;-76
2022/04/02 08:35:46;;;;;;;;;;;;;;;21.46;28.00;96458.28;4980497;28;1903;-75
2022/04/02 08:38:34;;;;;;;;;;;;;;;21.49;28.00;96445.22;4983228;28;1293;-77
2022/04/02 08:41:02;;;;;;;;;;;;;;;22.10;27.02;96448.53;4968530;28;1286;-76
2022/04/02 08:43:39;;;;;;;;;;;;;;;22.49;26.52;96457.78;4983788;28;1365;-77
2022/04/02 08:46:10;;;;;;;;;;;;;;;22.19;26.81;96448.47;4981400;28;1232;-77
2022/04/02 08:48:36;;;;;;;;;;;;;;;21.84;27.29;96446.22;4985218;28;1266;-77
2022/04/02 08:51:20;;;;;;;;;;;;;;;21.75;27.27;96445.50;4993529;28;1307;-76
2022/04/02 08:53:48;;;;;;;;;;;;;;;21.57;27.81;96455.69;4993318;28;953;-77
2022/04/02 08:56:21;;;;;;;;;;;;;;;21.61;27.33;96458.34;4993539;28;1915;-77
2022/04/02 08:58:49;;;;;;;;;;;;;;;21.58;27.72;96453.66;4993601;28;1043;-75
2022/04/02 09:01:27;;;;;;;;;;;;;;;21.51;27.79;96451.19;4993461;28;1190;-77
2022/04/02 09:04:11;;;;;;;;;;;;;;;21.68;27.80;96455.16;5012444;28;971;-76
2022/04/02 09:06:44;;;;;;;;;;;;;;;22.23;26.48;96462.47;5035627;28;934;-76
2022/04/02 09:09:10;;;;;;;;;;;;;;;22.33;26.10;96459.03;5017594;28;977;-75
2022/04/02 09:11:59;;;;;;;;;;;;;;;22.06;26.55;96454.38;5035521;28;984;-76
2022/04/02 09:14:42;;;;;;;;;;;;;;;21.64;27.21;96457.38;4954752;29;1028;-76
2022/04/02 09:17:14;;;;;;;;;;;;;;;21.63;27.05;96450.16;4955260;28;1915;-76
2022/04/02 09:20:05;;;;;;;;;;;;;;;21.61;27.29;96464.03;4920116;29;1012;-77
2022/04/02 09:22:35;;;;;;;;;;;;;;;21.57;27.31;96457.75;4881847;29;992;-76
2022/04/02 09:25:10;;;;;;;;;;;;;;;21.44;27.52;96455.16;4882445;29;1141;-77
2022/04/02 09:27:39;;;;;;;;;;;;;;;21.43;27.39;96464.13;4882320;29;1084;-76
2022/04/02 09:30:07;;;;;;;;;;;;;;;21.41;27.74;96472.31;4844971;29;1011;-77
2022/04/02 09:32:45;;;;;;;;;;;;;;;21.37;27.80;96466.06;4845187;29;1138;-76
2022/04/02 09:35:13;;;;;;;;;;;;;;;21.43;27.41;96470.56;4845274;29;1895;-77
2022/04/02 09:38:14;;;;;;;;;;;;;;;21.70;26.93;96469.59;4845336;29;1027;-76
2022/04/02 09:40:44;;;;;;;;;;;;;;;22.28;26.09;96468.22;4737230;30;1105;-76
2022/04/02 09:43:31;;;;;;;;;;;;;;;22.09;26.39;96463.97;4737227;30;1038;-76
2022/04/02 09:46:15;;;;;;;;;;;;;;;21.61;27.04;96472.50;4737295;30;994;-76
2022/04/02 09:48:52;;;;;;;;;;;;;;;21.64;27.24;96471.53;4737263;30;1001;-77
2022/04/02 09:51:19;;;;;;;;;;;;;;;21.62;27.26;96470.47;4774090;29;1450;-75
2022/04/02 09:53:47;;;;;;;;;;;;;;;21.50;27.41;96472.25;4823435;29;1090;-77
2022/04/02 09:56:16;;;;;;;;;;;;;;;21.44;27.50;96471.34;4793389;29;1915;-76
2022/04/02 09:59:08;;;;;;;;;;;;;;;21.57;27.38;96469.06;4816825;29;1103;-75
2022/04/02 10:01:38;;;;;;;;;;;;;;;21.50;27.67;96460.91;4870278;29;1046;-76
2022/04/02 10:04:04;;;;;;;;;;;;;;;21.59;27.32;96460.88;4881914;29;1002;-74
2022/04/02 10:06:38;;;;;;;;;;;;;;;21.61;27.33;96458.34;4881694;29;1010;-77
2022/04/02 10:09:13;;;;;;;;;;;;;;;21.49;27.43;96453.72;4881630;29;1056;-77
2022/04/02 10:11:43;;;;;;;;;;;;;;;22.07;26.50;96449.47;4890714;29;1066;-77
2022/04/02 10:14:09;;;;;;;;;;;;;;;22.39;26.28;96447.81;4922178;28;1130;-76
2022/04/02 10:16:35;;;;;;;;;;;;;;;21.87;26.72;96452.19;4958016;28;1997;-76
2022/04/02 10:19:01;;;;;;;;;;;;;;;21.66;27.24;96449.19;4957467;29;1099;-77
2022/04/02 10:21:30;;;;;;;;;;;;;;;21.59;27.58;96449.56;4900105;29;881;-77
2022/04/02 10:24:18;;;;;;;;;;;;;;;21.49;27.62;96446.00;4900068;29;1076;-76
2022/04/02 10:26:46;;;;;;;;;;;;;;;21.46;27.51;96440.53;4881242;29;1042;-76
2022/04/02 10:29:12;;;;;;;;;;;;;;;21.66;27.29;96442.72;4887771;29;1554;-76
2022/04/02 10:31:40;;;;;;;;;;;;;;;21.54;27.45;96453.81;4889144;29;1379;-76
2022/04/02 10:34:05;;;;;;;;;;;;;;;21.45;27.54;96450.28;4890125;29;1291;-77
2022/04/02 10:36:32;;;;;;;;;;;;;;;21.49;27.45;96446.00;4890548;29;1897;-76
2022/04/02 10:38:57;;;;;;;;;;;;;;;21.49;27.56;96445.22;4912692;29;1435;-75
2022/04/02 10:41:23;;;;;;;;;;;;;;;21.58;27.22;96453.66;4912217;29;1234;-76
2022/04/02 10:43:52;;;;;;;;;;;;;;;21.56;27.37;96445.66;4928296;29;1323;-77
2022/04/02 10:46:22;;;;;;;;;;;;;;;21.52;27.39;96452.75;4911153;29;1271;-76
2022/04/02 10:49:07;;;;;;;;;;;;;;;22.06;26.65;96445.09;4921985;29;1231;-75
2022/04/02 10:51:35;;;;;;;;;;;;;;;22.27;26.14;96446.03;4921097;29;1034;-75
2022/04/02 10:54:02;;;;;;;;;;;;;;;21.82;26.63;96451.59;4937540;29;1064;-76
2022/04/02 10:56:31;;;;;;;;;;;;;;;21.62;27.38;96437.28;4936956;29;1964;-76
2022/04/02 10:58:57;;;;;;;;;;;;;;;21.66;27.42;96448.41;4937125;29;1064;-75
2022/04/02 11:01:22;;;;;;;;;;;;;;;21.67;27.15;96436.59;4921563;29;1085;-76
2022/04/02 11:03:57;;;;;;;;;;;;;;;21.58;27.25;96431.00;4946844;28;1060;-77
2022/04/02 11:06:41;;;;;;;;;;;;;;;21.60;27.12;96442.63;4962547;28;1160;-76
2022/04/02 11:09:25;;;;;;;;;;;;;;;21.53;27.67;96429.63;4961951;28;1632;-76
2022/04/02 11:11:51;;;;;;;;;;;;;;;21.44;27.41;96428.91;4964338;28;1690;-76
2022/04/02 11:14:22;;;;;;;;;;;;;;;21.43;27.72;96424.50;4966082;28;1293;-76
2022/04/02 11:16:48;;;;;;;;;;;;;;;21.53;27.54;96423.97;4968672;28;1898;-76
2022/04/02 11:22:07;;;;;;;;;;;;;;;22.05;26.62;96423.69;4988959;28;1254;-77
2022/04/02 11:24:35;;;;;;;;;;;;;;;22.40;26.14;96437.25;4983827;28;1298;-76
2022/04/02 11:27:00;;;;;;;;;;;;;;;21.90;26.82;96426.50;4929143;29;1252;-76
2022/04/02 11:29:26;;;;;;;;;;;;;;;21.76;26.95;96425.22;4921040;29;977;-75
2022/04/02 11:31:51;;;;;;;;;;;;;;;21.71;27.31;96417.41;4920918;29;1285;-75
2022/04/02 11:34:20;;;;;;;;;;;;;;;21.62;27.25;96413.84;4914638;29;1246;-76
2022/04/02 11:36:47;;;;;;;;;;;;;;;21.51;27.45;96422.91;4906199;29;1906;-76
2022/04/02 11:39:18;;;;;;;;;;;;;;;21.54;27.32;96413.41;4901091;29;1272;-76
2022/04/02 11:41:43;;;;;;;;;;;;;;;21.65;27.44;96424.19;4894642;29;1319;-76
2022/04/02 11:44:13;;;;;;;;;;;;;;;21.57;27.46;96412.47;4882813;29;1317;-75
2022/04/02 11:46:54;;;;;;;;;;;;;;;21.44;27.46;96392.13;4900370;29;1034;-75
2022/04/02 11:49:37;;;;;;;;;;;;;;;21.47;27.70;96402.47;4936151;29;1092;-76
2022/04/02 11:52:04;;;;;;;;;;;;;;;22.22;26.58;96399.31;4944033;29;1197;-76
2022/04/02 11:54:29;;;;;;;;;;;;;;;22.15;26.40;96385.56;4945340;29;1213;-76
2022/04/02 11:57:15;;;;;;;;;;;;;;;21.82;27.16;96406.28;4913766;29;1915;-75
2022/04/02 11:59:52;;;;;;;;;;;;;;;21.51;27.58;96386.09;4965055;28;1109;-76
2022/04/02 12:02:36;;;;;;;;;;;;;;;21.55;27.31;96393.16;4963060;28;1113;-76
2022/04/02 12:05:04;;;;;;;;;;;;;;;21.56;27.50;96382.59;4987318;28;1170;-77
2022/04/02 12:07:38;;;;;;;;;;;;;;;21.53;27.51;96378.69;5025705;28;1315;-77
2022/04/02 12:10:04;;;;;;;;;;;;;;;21.62;27.17;96383.50;5023689;28;1155;-76
2022/04/02 12:12:29;;;;;;;;;;;;;;;21.40;27.70;96380.19;5025021;28;1221;-77
2022/04/02 12:14:58;;;;;;;;;;;;;;;21.54;27.44;96380.25;5027499;28;1299;-76
2022/04/02 12:17:23;;;;;;;;;;;;;;;21.59;27.53;96382.41;5034822;28;1981;-77
2022/04/02 12:19:52;;;;;;;;;;;;;;;21.39;27.59;96381.47;4990275;28;1559;-76
2022/04/02 12:22:27;;;;;;;;;;;;;;;21.49;27.32;96355.44;4973869;28;1353;-76
2022/04/02 12:24:54;;;;;;;;;;;;;;;21.44;27.77;96341.19;4974128;28;1005;-74
2022/04/02 12:27:20;;;;;;;;;;;;;;;21.95;27.00;96338.03;4974870;28;973;-77
2022/04/02 12:29:49;;;;;;;;;;;;;;;22.21;26.40;96341.09;4974339;28;1065;-75
2022/04/02 12:32:31;;;;;;;;;;;;;;;22.04;26.71;96342.84;4954940;29;996;-76
2022/04/02 12:34:57;;;;;;;;;;;;;;;21.82;27.11;96332.69;4938654;29;1093;-75
2022/04/02 12:37:23;;;;;;;;;;;;;;;21.57;27.24;96321.91;4954888;29;1907;-76
2022/04/02 12:39:50;;;;;;;;;;;;;;;21.60;27.33;96332.25;4955106;29;1041;-76
2022/04/02 12:42:34;;;;;;;;;;;;;;;21.63;27.44;96328.44;4938814;29;813;-76
2022/04/02 12:45:06;;;;;;;;;;;;;;;21.64;27.42;96341.31;4916699;29;950;-76
2022/04/02 12:47:32;;;;;;;;;;;;;;;21.60;27.28;96326.56;4916560;29;1097;-76
2022/04/02 12:50:08;;;;;;;;;;;;;;;21.47;27.67;96328.91;4903362;29;1005;-76
2022/04/02 12:52:33;;;;;;;;;;;;;;;21.58;27.50;96323.47;4938632;29;915;-76
2022/04/02 12:54:59;;;;;;;;;;;;;;;21.52;27.29;96336.72;4936909;29;935;-75
2022/04/02 12:57:31;;;;;;;;;;;;;;;21.78;27.23;96332.06;4924114;29;1995;-76
2022/04/02 12:59:56;;;;;;;;;;;;;;;22.16;26.31;96332.50;4939387;29;1008;-76
2022/04/02 13:02:23;;;;;;;;;;;;;;;22.04;26.66;96325.84;4942137;29;978;-76
2022/04/02 13:04:55;;;;;;;;;;;;;;;21.76;27.05;96323.31;4958645;29;1135;-75
2022/04/02 13:07:21;;;;;;;;;;;;;;;21.72;27.15;96325.53;4958654;29;1017;-77
2022/04/02 13:09:47;;;;;;;;;;;;;;;21.70;27.09;96333.72;4958504;29;1117;-76
2022/04/02 13:12:13;;;;;;;;;;;;;;;21.67;27.32;96326.22;4958627;29;945;-77